Valleyview, Ohio
Current Conditions -  °F | °C
As of 1:35 AM on Saturday 20 Dec 2014 (Local Time) from KTZR Reporting Station
Overcast Overcast  
Wind Chill: 29°   Ceiling: 1800
Heat Index: 29°   Visibility: 10mi
Dew Point: 24°   Wind: 0mph
Humidity: 80%   Direction: NA
Pressure: 30.25"   Gusts: NA
Location:  39.9614°N, 83.083°W
Report Text: KTZR 200635Z AUTO 00000KT 10SM OVC018 M01/M05 A3025 RMK AO2 T10151046
Loading
Personal Weather Stations






























Interactive Weather Map New forecast layout! Learn more

10-Day Weather Forecast

Advertisements
Track Severe Weather on mobile